Glovis Chorus — D7OR — position and weather

sailwx.info

Track history (hours):
 
Tides and Currents Weather Stations Pressure Air Temp Water Temp Dewpoint Dewpoint Depression Visibility Wind Speed Wind Dir Waves Ship Positions

Glovis Chorus

Last reported at 2018-Jul-19 12:16 UTC. Time now 2018-Jul-23 15:17 UTC.
Position N 48°31' W 126°00'.

Length 200 m; draft 7.6 m.

Type: Cargo ship. MMSI: 440292000.

Date/timePositionNaut miles runAvg speedWind from/ knotsBaromVisibWave heightAir tempDewpointWater temp
2018-Jul-19 12:16N 48°31' W 126°00'518.9
2018-Jul-19 12:00N 48°31' W 125°53'1019.4
2018-Jul-19 11:30N 48°31' W 125°38'1219.2
2018-Jul-19 10:52N 48°31' W 125°19'1219.5
2018-Jul-19 10:16N 48°31' W 125°02'519.8
2018-Jul-19 10:00N 48°31' W 124°54'1019.9
2018-Jul-19 09:30N 48°30' W 124°39'1020.4
2018-Jul-19 09:00N 48°26' W 124°25'1020.1
2018-Jul-19 08:30N 48°22' W 124°11'1020.1
2018-Jul-19 07:59N 48°18' W 123°57'2118.7
2018-Jul-19 06:52N 48°12' W 123°26'911.0
2018-Jul-19 06:03N 48°11' W 123°13'117.8
2018-Jul-19 06:00N 48°11' W 123°12'1116.7
2018-Jul-19 05:21N 48°12' W 122°56'915.7
2018-Jul-19 04:47N 48°09' W 122°43'614.0
2018-Jul-19 04:24N 48°05' W 122°38'615.4
2018-Jul-19 03:59N 47°59' W 122°35'815.6
2018-Jul-19 03:30N 47°53' W 122°28'816.8
2018-Jul-19 03:00N 47°45' W 122°26'816.9
2018-Jul-19 02:31N 47°36' W 122°27'917.6
2018-Jul-19 02:00N 47°27' W 122°24'714.9
2018-Jul-19 01:30N 47°20' W 122°26'4 7.8
2018-Jul-19 01:00N 47°16' W 122°25'0 0.2
2018-Jul-19 00:30N 47°16' W 122°25'0 0.0
2018-Jul-18 23:30N 47°16' W 122°25'0 0.0
2018-Jul-18 22:54N 47°16' W 122°25'0 0.0
2018-Jul-18 22:09N 47°16' W 122°25'0 0.0
2018-Jul-18 21:57N 47°16' W 122°25'0 0.0
2018-Jul-18 21:30N 47°16' W 122°25'0 0.0
2018-Jul-18 21:00N 47°16' W 122°25'0 0.0
2018-Jul-18 20:30N 47°16' W 122°25'0 0.0
2018-Jul-18 20:00N 47°16' W 122°25'0 0.0
2018-Jul-18 19:30N 47°16' W 122°25'0 0.0
2018-Jul-18 19:00N 47°16' W 122°25'0 0.0
2018-Jul-18 18:30N 47°16' W 122°25'0 0.0
2018-Jul-18 16:12N 47°16' W 122°25'0 0.0
2018-Jul-18 16:00N 47°16' W 122°25'0 0.0
2018-Jul-18 15:30N 47°16' W 122°25'0 0.0
2018-Jul-18 14:48N 47°16' W 122°25'0 0.0
2018-Jul-18 14:30N 47°16' W 122°25'0 0.0
2018-Jul-18 13:30N 47°16' W 122°25'0 0.0
2018-Jul-18 13:00N 47°16' W 122°25'0 0.0
2018-Jul-18 12:30N 47°16' W 122°25'0 0.0
2018-Jul-18 12:00N 47°16' W 122°25'0 0.0
2018-Jul-18 11:27N 47°16' W 122°25'0 0.0
2018-Jul-18 10:30N 47°16' W 122°25'0 0.0
2018-Jul-18 10:00N 47°16' W 122°25'1 1.0
2018-Jul-18 09:30N 47°17' W 122°25'2 4.8
2018-Jul-18 09:00N 47°18' W 122°28'713.5
2018-Jul-18 08:30N 47°24' W 122°22'917.2
2018-Jul-18 08:00N 47°32' W 122°27'917.0
2018-Jul-18 07:30N 47°41' W 122°28'816.5
2018-Jul-18 07:00N 47°49' W 122°28'816.0
2018-Jul-18 06:30N 47°56' W 122°32'815.9
2018-Jul-18 06:00N 48°03' W 122°39'1115.6
2018-Jul-18 05:17N 48°11' W 122°51'517.8
2018-Jul-18 04:59N 48°11' W 122°59'918.4
2018-Jul-18 04:30N 48°12' W 123°12'815.9
2018-Jul-18 04:00N 48°10' W 123°24'1210.4
2018-Jul-18 02:50N 48°22' W 123°25'3 7.9
2018-Jul-18 02:30N 48°23' W 123°22'611.0
2018-Jul-18 02:00N 48°24' W 123°14'713.5
2018-Jul-18 01:30N 48°31' W 123°12'714.4
2018-Jul-18 01:00N 48°38' W 123°15'611.7
2018-Jul-18 00:31N 48°44' W 123°11'815.6
2018-Jul-17 23:59N 48°48' W 123°01'917.2
2018-Jul-17 23:30N 48°55' W 123°09'817.3
2018-Jul-17 23:01N 49°01' W 123°18'611.2
2018-Jul-17 22:27N 49°07' W 123°16'511.3
2018-Jul-17 22:00N 49°07' W 123°09'713.2
2018-Jul-17 21:29N 49°09' W 122°59'3 0.7
2018-Jul-17 17:27N 49°11' W 122°55'0 0.0
2018-Jul-17 15:57N 49°11' W 122°55'0 0.0
2018-Jul-17 02:02N 49°11' W 122°55'0 0.0
2018-Jul-17 01:57N 49°11' W 122°55'0 0.8
2018-Jul-17 01:29N 49°11' W 122°55'5 9.4
2018-Jul-17 00:57N 49°09' W 123°03'2 3.2
2018-Jul-17 00:29N 49°08' W 123°04'0 0.0
2018-Jul-16 23:30N 49°08' W 123°04'0 0.0
2018-Jul-16 23:00N 49°08' W 123°04'0 0.0
2018-Jul-16 22:21N 49°08' W 123°04'0 0.0
2018-Jul-16 22:00N 49°08' W 123°04'0 0.0
2018-Jul-16 21:12N 49°08' W 123°04'0 0.0
2018-Jul-16 21:00N 49°08' W 123°04'0 0.0
2018-Jul-16 20:24N 49°08' W 123°04'0 0.0
2018-Jul-16 20:00N 49°08' W 123°04'0 0.0
2018-Jul-16 19:21N 49°08' W 123°04'0 0.0
2018-Jul-16 18:57N 49°08' W 123°04'0 0.0
2018-Jul-16 18:30N 49°08' W 123°04'0 0.0
2018-Jul-16 17:36N 49°08' W 123°04'0 0.0
2018-Jul-16 17:30N 49°08' W 123°04'0 0.0
2018-Jul-16 17:00N 49°08' W 123°04'0 0.0
2018-Jul-16 16:24N 49°08' W 123°04'0 0.0
2018-Jul-16 16:00N 49°08' W 123°04'0 0.0
2018-Jul-16 15:27N 49°08' W 123°04'0 0.0
2018-Jul-16 14:45N 49°08' W 123°04'0 0.0
2018-Jul-16 14:30N 49°08' W 123°04'0 0.0
2018-Jul-16 14:00N 49°08' W 123°04'0 0.0
2018-Jul-16 13:27N 49°08' W 123°04'0 0.0
2018-Jul-16 12:45N 49°08' W 123°04'0 0.0
2018-Jul-16 12:21N 49°08' W 123°04'0 0.0
2018-Jul-16 11:57N 49°08' W 123°04'0 0.0
2018-Jul-16 10:51N 49°08' W 123°04'0 0.0
2018-Jul-16 10:24N 49°08' W 123°04'0 0.2
2018-Jul-16 10:01N 49°08' W 123°04'4 7.7
2018-Jul-16 09:30N 49°07' W 123°10'711.7
2018-Jul-16 08:56N 49°05' W 123°20'2 4.1
2018-Jul-16 08:29N 49°03' W 123°19'715.0
2018-Jul-16 08:00N 48°58' W 123°12'916.9
2018-Jul-16 07:30N 48°52' W 123°03'612.5
2018-Jul-16 07:00N 48°46' W 123°02'816.0
2018-Jul-16 06:30N 48°42' W 123°13'714.3
2018-Jul-16 06:00N 48°35' W 123°13'917.4
2018-Jul-16 05:30N 48°27' W 123°10'714.5
2018-Jul-16 05:00N 48°22' W 123°18'6 9.8
2018-Jul-16 04:23N 48°18' W 123°25'3 8.7
2018-Jul-16 04:00N 48°15' W 123°27'8 8.3
2018-Jul-16 02:59N 48°13' W 123°39'4 8.2
2018-Jul-16 02:30N 48°13' W 123°45'4 8.8
2018-Jul-16 01:59N 48°13' W 123°52'5 8.8
2018-Jul-16 01:28N 48°14' W 123°59'715.0
2018-Jul-16 01:00N 48°17' W 124°08'918.4
2018-Jul-16 00:30N 48°21' W 124°21'917.8
2018-Jul-16 00:01N 48°25' W 124°32'816.9
2018-Jul-15 23:30N 48°28' W 124°44'917.2
2018-Jul-15 23:00N 48°28' W 124°57'917.4
2018-Jul-15 22:30N 48°29' W 125°10'816.7
2018-Jul-15 22:00N 48°29' W 125°23'816.2
2018-Jul-15 21:30N 48°29' W 125°35'816.3
2018-Jul-15 21:01N 48°29' W 125°47'816.3
2018-Jul-15 20:30N 48°29' W 125°60'816.6
2018-Jul-15 20:00N 48°29' W 126°12'816.6
2018-Jul-15 19:30N 48°29' W 126°25'816.4
2018-Jul-15 19:00N 48°29' W 126°37'1216.3
2018-Jul-15 18:15N 48°29' W 126°56'516.2
2018-Jul-15 17:57N 48°29' W 127°03'916.3
2018-Jul-15 17:23N 48°29' W 127°17'615.9
2018-Jul-15 17:00N 48°29' W 127°26'815.9
2018-Jul-15 16:30N 48°29' W 127°38'815.7
2018-Jul-15 16:00N 48°29' W 127°50'815.8
2018-Jul-15 15:30N 48°29' W 128°02'816.0
2018-Jul-15 15:00N 48°29' W 128°14'815.8
2018-Jul-15 14:30N 48°29' W 128°26'815.6
2018-Jul-15 14:00N 48°29' W 128°37'2615.8
2018-Jul-15 12:22N 48°30' W 129°16'1515.8
2018-Jul-15 11:26N 48°29' W 129°39'715.9
2018-Jul-15 10:58N 48°29' W 129°50'2715.9
2018-Jul-15 09:14N 48°29' W 130°31'515.9
2018-Jul-15 08:55N 48°30' W 130°39'715.9
2018-Jul-15 08:30N 48°30' W 130°49'815.9
2018-Jul-15 07:59N 48°30' W 131°02'816.2
2018-Jul-15 07:29N 48°30' W 131°14'  
Track history (hours):
 
Tides and Currents Weather Stations Pressure Air Temp Water Temp Dewpoint Dewpoint Depression Visibility Wind Speed Wind Dir Waves Ship Positions

Glovis Chorus

Last reported at 2018-Jul-19 12:16 UTC. Time now 2018-Jul-23 15:17 UTC.
Position N 48°31' W 126°00'.

Length 200 m; draft 7.6 m.

Type: Cargo ship. MMSI: 440292000.

Date/timePositionNaut miles runAvg speedWind from/ knotsBaromVisibWave heightAir tempDewpointWater temp
2018-Jul-19 12:16N 48°31' W 126°00'518.9
2018-Jul-19 12:00N 48°31' W 125°53'1019.4
2018-Jul-19 11:30N 48°31' W 125°38'1219.2
2018-Jul-19 10:52N 48°31' W 125°19'1219.5
2018-Jul-19 10:16N 48°31' W 125°02'519.8
2018-Jul-19 10:00N 48°31' W 124°54'1019.9
2018-Jul-19 09:30N 48°30' W 124°39'1020.4
2018-Jul-19 09:00N 48°26' W 124°25'1020.1
2018-Jul-19 08:30N 48°22' W 124°11'1020.1
2018-Jul-19 07:59N 48°18' W 123°57'2118.7
2018-Jul-19 06:52N 48°12' W 123°26'911.0
2018-Jul-19 06:03N 48°11' W 123°13'117.8
2018-Jul-19 06:00N 48°11' W 123°12'1116.7
2018-Jul-19 05:21N 48°12' W 122°56'915.7
2018-Jul-19 04:47N 48°09' W 122°43'614.0
2018-Jul-19 04:24N 48°05' W 122°38'615.4
2018-Jul-19 03:59N 47°59' W 122°35'815.6
2018-Jul-19 03:30N 47°53' W 122°28'816.8
2018-Jul-19 03:00N 47°45' W 122°26'816.9
2018-Jul-19 02:31N 47°36' W 122°27'917.6
2018-Jul-19 02:00N 47°27' W 122°24'714.9
2018-Jul-19 01:30N 47°20' W 122°26'4 7.8
2018-Jul-19 01:00N 47°16' W 122°25'0 0.2
2018-Jul-19 00:30N 47°16' W 122°25'0 0.0
2018-Jul-18 23:30N 47°16' W 122°25'0 0.0
2018-Jul-18 22:54N 47°16' W 122°25'0 0.0
2018-Jul-18 22:09N 47°16' W 122°25'0 0.0
2018-Jul-18 21:57N 47°16' W 122°25'0 0.0
2018-Jul-18 21:30N 47°16' W 122°25'0 0.0
2018-Jul-18 21:00N 47°16' W 122°25'0 0.0
2018-Jul-18 20:30N 47°16' W 122°25'0 0.0
2018-Jul-18 20:00N 47°16' W 122°25'0 0.0
2018-Jul-18 19:30N 47°16' W 122°25'0 0.0
2018-Jul-18 19:00N 47°16' W 122°25'0 0.0
2018-Jul-18 18:30N 47°16' W 122°25'0 0.0
2018-Jul-18 16:12N 47°16' W 122°25'0 0.0
2018-Jul-18 16:00N 47°16' W 122°25'0 0.0
2018-Jul-18 15:30N 47°16' W 122°25'0 0.0
2018-Jul-18 14:48N 47°16' W 122°25'0 0.0
2018-Jul-18 14:30N 47°16' W 122°25'0 0.0
2018-Jul-18 13:30N 47°16' W 122°25'0 0.0
2018-Jul-18 13:00N 47°16' W 122°25'0 0.0
2018-Jul-18 12:30N 47°16' W 122°25'0 0.0
2018-Jul-18 12:00N 47°16' W 122°25'0 0.0
2018-Jul-18 11:27N 47°16' W 122°25'0 0.0
2018-Jul-18 10:30N 47°16' W 122°25'0 0.0
2018-Jul-18 10:00N 47°16' W 122°25'1 1.0
2018-Jul-18 09:30N 47°17' W 122°25'2 4.8
2018-Jul-18 09:00N 47°18' W 122°28'713.5
2018-Jul-18 08:30N 47°24' W 122°22'917.2
2018-Jul-18 08:00N 47°32' W 122°27'917.0
2018-Jul-18 07:30N 47°41' W 122°28'816.5
2018-Jul-18 07:00N 47°49' W 122°28'816.0
2018-Jul-18 06:30N 47°56' W 122°32'815.9
2018-Jul-18 06:00N 48°03' W 122°39'1115.6
2018-Jul-18 05:17N 48°11' W 122°51'517.8
2018-Jul-18 04:59N 48°11' W 122°59'918.4
2018-Jul-18 04:30N 48°12' W 123°12'815.9
2018-Jul-18 04:00N 48°10' W 123°24'1210.4
2018-Jul-18 02:50N 48°22' W 123°25'3 7.9
2018-Jul-18 02:30N 48°23' W 123°22'611.0
2018-Jul-18 02:00N 48°24' W 123°14'713.5
2018-Jul-18 01:30N 48°31' W 123°12'714.4
2018-Jul-18 01:00N 48°38' W 123°15'611.7
2018-Jul-18 00:31N 48°44' W 123°11'815.6
2018-Jul-17 23:59N 48°48' W 123°01'917.2
2018-Jul-17 23:30N 48°55' W 123°09'817.3
2018-Jul-17 23:01N 49°01' W 123°18'611.2
2018-Jul-17 22:27N 49°07' W 123°16'511.3
2018-Jul-17 22:00N 49°07' W 123°09'713.2
2018-Jul-17 21:29N 49°09' W 122°59'3 0.7
2018-Jul-17 17:27N 49°11' W 122°55'0 0.0
2018-Jul-17 15:57N 49°11' W 122°55'0 0.0
2018-Jul-17 02:02N 49°11' W 122°55'0 0.0
2018-Jul-17 01:57N 49°11' W 122°55'0 0.8
2018-Jul-17 01:29N 49°11' W 122°55'5 9.4
2018-Jul-17 00:57N 49°09' W 123°03'2 3.2
2018-Jul-17 00:29N 49°08' W 123°04'0 0.0
2018-Jul-16 23:30N 49°08' W 123°04'0 0.0
2018-Jul-16 23:00N 49°08' W 123°04'0 0.0
2018-Jul-16 22:21N 49°08' W 123°04'0 0.0
2018-Jul-16 22:00N 49°08' W 123°04'0 0.0
2018-Jul-16 21:12N 49°08' W 123°04'0 0.0
2018-Jul-16 21:00N 49°08' W 123°04'0 0.0
2018-Jul-16 20:24N 49°08' W 123°04'0 0.0
2018-Jul-16 20:00N 49°08' W 123°04'0 0.0
2018-Jul-16 19:21N 49°08' W 123°04'0 0.0
2018-Jul-16 18:57N 49°08' W 123°04'0 0.0
2018-Jul-16 18:30N 49°08' W 123°04'0 0.0
2018-Jul-16 17:36N 49°08' W 123°04'0 0.0
2018-Jul-16 17:30N 49°08' W 123°04'0 0.0
2018-Jul-16 17:00N 49°08' W 123°04'0 0.0
2018-Jul-16 16:24N 49°08' W 123°04'0 0.0
2018-Jul-16 16:00N 49°08' W 123°04'0 0.0
2018-Jul-16 15:27N 49°08' W 123°04'0 0.0
2018-Jul-16 14:45N 49°08' W 123°04'0 0.0
2018-Jul-16 14:30N 49°08' W 123°04'0 0.0
2018-Jul-16 14:00N 49°08' W 123°04'0 0.0
2018-Jul-16 13:27N 49°08' W 123°04'0 0.0
2018-Jul-16 12:45N 49°08' W 123°04'0 0.0
2018-Jul-16 12:21N 49°08' W 123°04'0 0.0
2018-Jul-16 11:57N 49°08' W 123°04'0 0.0
2018-Jul-16 10:51N 49°08' W 123°04'0 0.0
2018-Jul-16 10:24N 49°08' W 123°04'0 0.2
2018-Jul-16 10:01N 49°08' W 123°04'4 7.7
2018-Jul-16 09:30N 49°07' W 123°10'711.7
2018-Jul-16 08:56N 49°05' W 123°20'2 4.1
2018-Jul-16 08:29N 49°03' W 123°19'715.0
2018-Jul-16 08:00N 48°58' W 123°12'916.9
2018-Jul-16 07:30N 48°52' W 123°03'612.5
2018-Jul-16 07:00N 48°46' W 123°02'816.0
2018-Jul-16 06:30N 48°42' W 123°13'714.3
2018-Jul-16 06:00N 48°35' W 123°13'917.4
2018-Jul-16 05:30N 48°27' W 123°10'714.5
2018-Jul-16 05:00N 48°22' W 123°18'6 9.8
2018-Jul-16 04:23N 48°18' W 123°25'3 8.7
2018-Jul-16 04:00N 48°15' W 123°27'8 8.3
2018-Jul-16 02:59N 48°13' W 123°39'4 8.2
2018-Jul-16 02:30N 48°13' W 123°45'4 8.8
2018-Jul-16 01:59N 48°13' W 123°52'5 8.8
2018-Jul-16 01:28N 48°14' W 123°59'715.0
2018-Jul-16 01:00N 48°17' W 124°08'918.4
2018-Jul-16 00:30N 48°21' W 124°21'917.8
2018-Jul-16 00:01N 48°25' W 124°32'816.9
2018-Jul-15 23:30N 48°28' W 124°44'917.2
2018-Jul-15 23:00N 48°28' W 124°57'917.4
2018-Jul-15 22:30N 48°29' W 125°10'816.7
2018-Jul-15 22:00N 48°29' W 125°23'816.2
2018-Jul-15 21:30N 48°29' W 125°35'816.3
2018-Jul-15 21:01N 48°29' W 125°47'816.3
2018-Jul-15 20:30N 48°29' W 125°60'816.6
2018-Jul-15 20:00N 48°29' W 126°12'816.6
2018-Jul-15 19:30N 48°29' W 126°25'816.4
2018-Jul-15 19:00N 48°29' W 126°37'1216.3
2018-Jul-15 18:15N 48°29' W 126°56'516.2
2018-Jul-15 17:57N 48°29' W 127°03'916.3
2018-Jul-15 17:23N 48°29' W 127°17'615.9
2018-Jul-15 17:00N 48°29' W 127°26'815.9
2018-Jul-15 16:30N 48°29' W 127°38'815.7
2018-Jul-15 16:00N 48°29' W 127°50'815.8
2018-Jul-15 15:30N 48°29' W 128°02'816.0
2018-Jul-15 15:00N 48°29' W 128°14'815.8
2018-Jul-15 14:30N 48°29' W 128°26'815.6
2018-Jul-15 14:00N 48°29' W 128°37'2615.8
2018-Jul-15 12:22N 48°30' W 129°16'1515.8
2018-Jul-15 11:26N 48°29' W 129°39'715.9
2018-Jul-15 10:58N 48°29' W 129°50'2715.9
2018-Jul-15 09:14N 48°29' W 130°31'515.9
2018-Jul-15 08:55N 48°30' W 130°39'715.9
2018-Jul-15 08:30N 48°30' W 130°49'815.9
2018-Jul-15 07:59N 48°30' W 131°02'816.2
2018-Jul-15 07:29N 48°30' W 131°14'  

Dump ship's entire track history